sensor_id;sensor_type;location;lat;lon;timestamp;P1;durP1;ratioP1;P2;durP2;ratioP2
65033;SDS011;51601;51.356;12.458;2023-12-20T00:00:13;8.20;;;3.75;;
65033;SDS011;51601;51.356;12.458;2023-12-20T00:04:31;7.03;;;3.33;;
65033;SDS011;51601;51.356;12.458;2023-12-20T00:08:49;11.55;;;4.68;;
65033;SDS011;51601;51.356;12.458;2023-12-20T00:13:08;9.07;;;3.83;;
65033;SDS011;51601;51.356;12.458;2023-12-20T00:17:28;8.00;;;3.05;;
65033;SDS011;51601;51.356;12.458;2023-12-20T00:21:46;9.10;;;3.72;;
65033;SDS011;51601;51.356;12.458;2023-12-20T00:26:04;7.90;;;3.40;;
65033;SDS011;51601;51.356;12.458;2023-12-20T00:34:56;9.75;;;3.63;;
65033;SDS011;51601;51.356;12.458;2023-12-20T00:39:16;8.30;;;3.70;;
65033;SDS011;51601;51.356;12.458;2023-12-20T00:43:35;6.10;;;2.58;;
65033;SDS011;51601;51.356;12.458;2023-12-20T00:47:54;11.18;;;4.32;;
65033;SDS011;51601;51.356;12.458;2023-12-20T00:52:17;5.28;;;2.35;;
65033;SDS011;51601;51.356;12.458;2023-12-20T00:56:35;6.37;;;2.60;;
65033;SDS011;51601;51.356;12.458;2023-12-20T01:00:53;7.53;;;3.30;;
65033;SDS011;51601;51.356;12.458;2023-12-20T01:05:13;5.78;;;2.55;;
65033;SDS011;51601;51.356;12.458;2023-12-20T01:09:33;5.63;;;1.93;;
65033;SDS011;51601;51.356;12.458;2023-12-20T01:13:50;6.45;;;2.63;;
65033;SDS011;51601;51.356;12.458;2023-12-20T01:18:12;5.05;;;1.95;;
65033;SDS011;51601;51.356;12.458;2023-12-20T01:22:34;6.40;;;2.73;;
65033;SDS011;51601;51.356;12.458;2023-12-20T01:26:57;5.00;;;1.88;;
65033;SDS011;51601;51.356;12.458;2023-12-20T01:31:15;5.47;;;2.22;;
65033;SDS011;51601;51.356;12.458;2023-12-20T01:35:36;3.83;;;1.50;;
65033;SDS011;51601;51.356;12.458;2023-12-20T01:39:56;5.60;;;2.10;;
65033;SDS011;51601;51.356;12.458;2023-12-20T01:44:15;3.78;;;1.50;;
65033;SDS011;51601;51.356;12.458;2023-12-20T01:48:33;5.43;;;2.00;;
65033;SDS011;51601;51.356;12.458;2023-12-20T01:52:51;5.80;;;2.23;;
65033;SDS011;51601;51.356;12.458;2023-12-20T01:57:16;4.05;;;1.50;;
65033;SDS011;51601;51.356;12.458;2023-12-20T02:01:37;5.35;;;1.88;;
65033;SDS011;51601;51.356;12.458;2023-12-20T02:05:55;3.67;;;1.43;;
65033;SDS011;51601;51.356;12.458;2023-12-20T02:10:13;3.92;;;1.50;;
65033;SDS011;51601;51.356;12.458;2023-12-20T02:14:35;5.05;;;1.83;;
65033;SDS011;51601;51.356;12.458;2023-12-20T02:18:55;4.82;;;1.65;;
65033;SDS011;51601;51.356;12.458;2023-12-20T02:23:14;5.20;;;1.93;;
65033;SDS011;51601;51.356;12.458;2023-12-20T02:27:34;4.90;;;2.10;;
65033;SDS011;51601;51.356;12.458;2023-12-20T02:31:52;4.40;;;1.25;;
65033;SDS011;51601;51.356;12.458;2023-12-20T02:36:10;4.87;;;2.07;;
65033;SDS011;51601;51.356;12.458;2023-12-20T02:40:30;4.28;;;1.60;;
65033;SDS011;51601;51.356;12.458;2023-12-20T02:44:50;6.85;;;2.20;;
65033;SDS011;51601;51.356;12.458;2023-12-20T02:49:08;5.40;;;2.07;;
65033;SDS011;51601;51.356;12.458;2023-12-20T02:53:26;4.22;;;1.77;;
65033;SDS011;51601;51.356;12.458;2023-12-20T02:57:48;4.65;;;1.83;;
65033;SDS011;51601;51.356;12.458;2023-12-20T03:02:08;6.15;;;2.10;;
65033;SDS011;51601;51.356;12.458;2023-12-20T03:06:26;4.40;;;1.60;;
65033;SDS011;51601;51.356;12.458;2023-12-20T03:10:44;5.30;;;2.17;;
65033;SDS011;51601;51.356;12.458;2023-12-20T03:15:04;5.07;;;1.60;;
65033;SDS011;51601;51.356;12.458;2023-12-20T03:19:23;5.47;;;1.83;;
65033;SDS011;51601;51.356;12.458;2023-12-20T03:23:45;5.63;;;2.03;;
65033;SDS011;51601;51.356;12.458;2023-12-20T03:28:03;4.65;;;1.80;;
65033;SDS011;51601;51.356;12.458;2023-12-20T03:32:23;5.90;;;2.13;;
65033;SDS011;51601;51.356;12.458;2023-12-20T03:36:42;5.43;;;1.88;;
65033;SDS011;51601;51.356;12.458;2023-12-20T03:41:00;5.25;;;2.00;;
65033;SDS011;51601;51.356;12.458;2023-12-20T03:45:18;5.28;;;1.85;;
65033;SDS011;51601;51.356;12.458;2023-12-20T03:49:44;5.90;;;2.00;;
65033;SDS011;51601;51.356;12.458;2023-12-20T03:54:03;5.25;;;2.15;;
65033;SDS011;51601;51.356;12.458;2023-12-20T03:58:21;3.70;;;1.40;;
65033;SDS011;51601;51.356;12.458;2023-12-20T04:02:39;6.33;;;2.57;;
65033;SDS011;51601;51.356;12.458;2023-12-20T04:06:59;5.80;;;2.30;;
65033;SDS011;51601;51.356;12.458;2023-12-20T04:11:18;5.60;;;2.25;;
65033;SDS011;51601;51.356;12.458;2023-12-20T04:15:36;5.80;;;2.57;;
65033;SDS011;51601;51.356;12.458;2023-12-20T04:19:55;6.65;;;3.00;;
65033;SDS011;51601;51.356;12.458;2023-12-20T04:24:16;5.55;;;2.40;;
65033;SDS011;51601;51.356;12.458;2023-12-20T04:28:37;6.30;;;2.60;;
65033;SDS011;51601;51.356;12.458;2023-12-20T04:32:55;4.37;;;2.10;;
65033;SDS011;51601;51.356;12.458;2023-12-20T04:37:13;5.72;;;2.47;;
65033;SDS011;51601;51.356;12.458;2023-12-20T04:41:32;7.10;;;2.80;;
65033;SDS011;51601;51.356;12.458;2023-12-20T04:45:52;7.23;;;2.67;;
65033;SDS011;51601;51.356;12.458;2023-12-20T04:50:10;5.60;;;2.38;;
65033;SDS011;51601;51.356;12.458;2023-12-20T04:54:31;6.45;;;2.80;;
65033;SDS011;51601;51.356;12.458;2023-12-20T04:58:51;5.43;;;2.57;;
65033;SDS011;51601;51.356;12.458;2023-12-20T05:03:10;6.70;;;2.92;;
65033;SDS011;51601;51.356;12.458;2023-12-20T05:07:31;5.95;;;2.70;;
65033;SDS011;51601;51.356;12.458;2023-12-20T05:11:53;7.38;;;3.10;;
65033;SDS011;51601;51.356;12.458;2023-12-20T05:16:16;6.53;;;2.70;;
65033;SDS011;51601;51.356;12.458;2023-12-20T05:20:35;6.95;;;2.50;;
65033;SDS011;51601;51.356;12.458;2023-12-20T05:24:53;7.10;;;3.10;;
65033;SDS011;51601;51.356;12.458;2023-12-20T05:29:11;8.93;;;4.07;;
65033;SDS011;51601;51.356;12.458;2023-12-20T05:33:30;8.32;;;3.80;;
65033;SDS011;51601;51.356;12.458;2023-12-20T05:37:50;7.95;;;3.83;;
65033;SDS011;51601;51.356;12.458;2023-12-20T05:42:08;9.17;;;4.40;;
65033;SDS011;51601;51.356;12.458;2023-12-20T05:46:26;5.43;;;2.47;;
65033;SDS011;51601;51.356;12.458;2023-12-20T05:50:46;9.85;;;4.03;;
65033;SDS011;51601;51.356;12.458;2023-12-20T05:55:06;7.90;;;3.38;;
65033;SDS011;51601;51.356;12.458;2023-12-20T05:59:24;8.13;;;3.20;;
65033;SDS011;51601;51.356;12.458;2023-12-20T06:03:41;6.82;;;2.95;;
65033;SDS011;51601;51.356;12.458;2023-12-20T06:08:01;7.68;;;2.85;;
65033;SDS011;51601;51.356;12.458;2023-12-20T06:12:21;5.40;;;2.20;;
65033;SDS011;51601;51.356;12.458;2023-12-20T06:16:39;6.03;;;2.42;;
65033;SDS011;51601;51.356;12.458;2023-12-20T06:21:10;6.88;;;3.20;;
65033;SDS011;51601;51.356;12.458;2023-12-20T06:25:44;8.17;;;3.63;;
65033;SDS011;51601;51.356;12.458;2023-12-20T06:30:04;6.35;;;2.70;;
65033;SDS011;51601;51.356;12.458;2023-12-20T06:34:25;11.57;;;5.43;;
65033;SDS011;51601;51.356;12.458;2023-12-20T06:38:43;10.63;;;4.43;;
65033;SDS011;51601;51.356;12.458;2023-12-20T06:43:02;11.70;;;4.70;;
65033;SDS011;51601;51.356;12.458;2023-12-20T06:47:37;7.60;;;3.45;;
65033;SDS011;51601;51.356;12.458;2023-12-20T06:51:56;9.13;;;3.80;;
65033;SDS011;51601;51.356;12.458;2023-12-20T06:56:13;7.83;;;3.57;;
65033;SDS011;51601;51.356;12.458;2023-12-20T07:00:36;4.43;;;1.85;;
65033;SDS011;51601;51.356;12.458;2023-12-20T07:04:56;4.55;;;1.95;;
65033;SDS011;51601;51.356;12.458;2023-12-20T07:09:14;5.00;;;2.10;;
65033;SDS011;51601;51.356;12.458;2023-12-20T07:13:32;9.43;;;3.22;;
65033;SDS011;51601;51.356;12.458;2023-12-20T07:17:51;7.13;;;2.17;;
65033;SDS011;51601;51.356;12.458;2023-12-20T07:22:11;7.03;;;2.67;;
65033;SDS011;51601;51.356;12.458;2023-12-20T07:26:29;6.47;;;2.40;;
65033;SDS011;51601;51.356;12.458;2023-12-20T07:30:47;7.28;;;2.13;;
65033;SDS011;51601;51.356;12.458;2023-12-20T07:35:08;4.47;;;1.40;;
65033;SDS011;51601;51.356;12.458;2023-12-20T07:39:32;4.57;;;2.00;;
65033;SDS011;51601;51.356;12.458;2023-12-20T07:43:58;6.72;;;1.70;;
65033;SDS011;51601;51.356;12.458;2023-12-20T07:48:18;11.70;;;2.08;;
65033;SDS011;51601;51.356;12.458;2023-12-20T07:52:47;5.00;;;1.63;;
65033;SDS011;51601;51.356;12.458;2023-12-20T07:57:07;4.38;;;1.50;;
65033;SDS011;51601;51.356;12.458;2023-12-20T08:01:34;5.53;;;1.50;;
65033;SDS011;51601;51.356;12.458;2023-12-20T08:06:04;4.38;;;1.38;;
65033;SDS011;51601;51.356;12.458;2023-12-20T08:10:25;6.57;;;2.00;;
65033;SDS011;51601;51.356;12.458;2023-12-20T08:14:46;4.20;;;1.60;;
65033;SDS011;51601;51.356;12.458;2023-12-20T08:19:07;4.22;;;1.50;;
65033;SDS011;51601;51.356;12.458;2023-12-20T08:23:25;4.37;;;1.53;;
65033;SDS011;51601;51.356;12.458;2023-12-20T08:27:57;5.15;;;1.67;;
65033;SDS011;51601;51.356;12.458;2023-12-20T08:32:17;4.85;;;1.48;;
65033;SDS011;51601;51.356;12.458;2023-12-20T08:36:35;5.20;;;1.50;;
65033;SDS011;51601;51.356;12.458;2023-12-20T08:40:53;6.13;;;2.00;;
65033;SDS011;51601;51.356;12.458;2023-12-20T08:45:12;6.82;;;1.85;;
65033;SDS011;51601;51.356;12.458;2023-12-20T08:49:32;6.72;;;1.40;;
65033;SDS011;51601;51.356;12.458;2023-12-20T08:53:50;6.93;;;1.73;;
65033;SDS011;51601;51.356;12.458;2023-12-20T08:58:08;7.43;;;1.80;;
65033;SDS011;51601;51.356;12.458;2023-12-20T09:02:27;7.32;;;2.28;;
65033;SDS011;51601;51.356;12.458;2023-12-20T09:06:47;4.10;;;1.50;;
65033;SDS011;51601;51.356;12.458;2023-12-20T09:11:06;4.97;;;1.67;;
65033;SDS011;51601;51.356;12.458;2023-12-20T09:15:25;3.90;;;1.52;;
65033;SDS011;51601;51.356;12.458;2023-12-20T09:19:49;3.63;;;1.63;;
65033;SDS011;51601;51.356;12.458;2023-12-20T09:24:09;4.18;;;1.42;;
65033;SDS011;51601;51.356;12.458;2023-12-20T09:28:27;8.05;;;1.85;;
65033;SDS011;51601;51.356;12.458;2023-12-20T09:32:45;7.57;;;1.90;;
65033;SDS011;51601;51.356;12.458;2023-12-20T09:37:07;4.20;;;1.80;;
65033;SDS011;51601;51.356;12.458;2023-12-20T09:41:27;4.72;;;1.60;;
65033;SDS011;51601;51.356;12.458;2023-12-20T09:45:48;6.53;;;2.05;;
65033;SDS011;51601;51.356;12.458;2023-12-20T09:50:12;7.43;;;2.07;;
65033;SDS011;51601;51.356;12.458;2023-12-20T09:54:38;6.93;;;1.83;;
65033;SDS011;51601;51.356;12.458;2023-12-20T09:58:58;4.13;;;1.80;;
65033;SDS011;51601;51.356;12.458;2023-12-20T10:03:19;5.10;;;1.50;;
65033;SDS011;51601;51.356;12.458;2023-12-20T10:07:43;4.22;;;1.70;;
65033;SDS011;51601;51.356;12.458;2023-12-20T10:12:03;5.78;;;1.85;;
65033;SDS011;51601;51.356;12.458;2023-12-20T10:16:24;4.38;;;1.60;;
65033;SDS011;51601;51.356;12.458;2023-12-20T10:20:43;6.20;;;1.90;;
65033;SDS011;51601;51.356;12.458;2023-12-20T10:25:05;5.38;;;1.45;;
65033;SDS011;51601;51.356;12.458;2023-12-20T10:29:27;3.75;;;1.48;;
65033;SDS011;51601;51.356;12.458;2023-12-20T10:33:50;5.53;;;1.87;;
65033;SDS011;51601;51.356;12.458;2023-12-20T10:38:08;3.80;;;1.50;;
65033;SDS011;51601;51.356;12.458;2023-12-20T10:42:26;3.42;;;1.45;;
65033;SDS011;51601;51.356;12.458;2023-12-20T10:46:45;5.83;;;1.70;;
65033;SDS011;51601;51.356;12.458;2023-12-20T10:51:08;6.38;;;1.75;;
65033;SDS011;51601;51.356;12.458;2023-12-20T10:55:32;5.82;;;2.00;;
65033;SDS011;51601;51.356;12.458;2023-12-20T10:59:50;6.40;;;1.60;;
65033;SDS011;51601;51.356;12.458;2023-12-20T11:04:23;7.03;;;1.70;;
65033;SDS011;51601;51.356;12.458;2023-12-20T11:08:58;5.60;;;1.67;;
65033;SDS011;51601;51.356;12.458;2023-12-20T11:13:26;5.43;;;1.27;;
65033;SDS011;51601;51.356;12.458;2023-12-20T11:17:54;5.33;;;1.63;;
65033;SDS011;51601;51.356;12.458;2023-12-20T11:22:19;5.35;;;1.30;;
65033;SDS011;51601;51.356;12.458;2023-12-20T11:26:37;4.43;;;1.63;;
65033;SDS011;51601;51.356;12.458;2023-12-20T11:31:05;6.80;;;1.70;;
65033;SDS011;51601;51.356;12.458;2023-12-20T11:35:25;4.97;;;1.60;;
65033;SDS011;51601;51.356;12.458;2023-12-20T11:39:45;4.75;;;1.65;;
65033;SDS011;51601;51.356;12.458;2023-12-20T11:44:11;5.25;;;1.73;;
65033;SDS011;51601;51.356;12.458;2023-12-20T11:48:30;5.00;;;1.70;;
65033;SDS011;51601;51.356;12.458;2023-12-20T11:52:51;7.18;;;1.70;;
65033;SDS011;51601;51.356;12.458;2023-12-20T11:57:16;3.83;;;1.40;;
65033;SDS011;51601;51.356;12.458;2023-12-20T12:01:35;4.17;;;1.17;;
65033;SDS011;51601;51.356;12.458;2023-12-20T12:05:53;5.45;;;1.40;;
65033;SDS011;51601;51.356;12.458;2023-12-20T12:10:11;7.00;;;1.67;;
65033;SDS011;51601;51.356;12.458;2023-12-20T12:14:31;5.23;;;1.30;;
65033;SDS011;51601;51.356;12.458;2023-12-20T12:18:57;6.57;;;2.10;;
65033;SDS011;51601;51.356;12.458;2023-12-20T12:23:22;10.98;;;1.95;;
65033;SDS011;51601;51.356;12.458;2023-12-20T12:27:45;3.35;;;1.55;;
65033;SDS011;51601;51.356;12.458;2023-12-20T12:32:06;6.10;;;1.70;;
65033;SDS011;51601;51.356;12.458;2023-12-20T12:36:34;3.63;;;1.45;;
65033;SDS011;51601;51.356;12.458;2023-12-20T12:40:52;5.53;;;1.45;;
65033;SDS011;51601;51.356;12.458;2023-12-20T12:45:10;6.43;;;2.33;;
65033;SDS011;51601;51.356;12.458;2023-12-20T12:49:29;5.18;;;1.63;;
65033;SDS011;51601;51.356;12.458;2023-12-20T12:53:49;5.07;;;2.15;;
65033;SDS011;51601;51.356;12.458;2023-12-20T12:58:07;6.60;;;1.60;;
65033;SDS011;51601;51.356;12.458;2023-12-20T13:02:25;4.95;;;1.42;;
65033;SDS011;51601;51.356;12.458;2023-12-20T13:06:48;4.70;;;1.35;;
65033;SDS011;51601;51.356;12.458;2023-12-20T13:11:07;6.13;;;1.60;;
65033;SDS011;51601;51.356;12.458;2023-12-20T13:15:25;3.97;;;1.40;;
65033;SDS011;51601;51.356;12.458;2023-12-20T13:19:43;4.43;;;1.58;;
65033;SDS011;51601;51.356;12.458;2023-12-20T13:24:03;5.47;;;1.55;;
65033;SDS011;51601;51.356;12.458;2023-12-20T13:28:28;5.33;;;1.60;;
65033;SDS011;51601;51.356;12.458;2023-12-20T13:32:47;6.82;;;1.40;;
65033;SDS011;51601;51.356;12.458;2023-12-20T13:37:08;4.10;;;1.40;;
65033;SDS011;51601;51.356;12.458;2023-12-20T13:41:27;4.97;;;1.50;;
65033;SDS011;51601;51.356;12.458;2023-12-20T13:45:49;4.63;;;1.40;;
65033;SDS011;51601;51.356;12.458;2023-12-20T13:50:08;3.60;;;1.48;;
65033;SDS011;51601;51.356;12.458;2023-12-20T13:54:30;4.70;;;1.30;;
65033;SDS011;51601;51.356;12.458;2023-12-20T13:58:52;3.60;;;1.10;;
65033;SDS011;51601;51.356;12.458;2023-12-20T14:03:12;3.72;;;1.30;;
65033;SDS011;51601;51.356;12.458;2023-12-20T14:07:33;3.90;;;1.05;;
65033;SDS011;51601;51.356;12.458;2023-12-20T14:11:51;4.33;;;1.70;;
65033;SDS011;51601;51.356;12.458;2023-12-20T14:16:14;3.38;;;1.23;;
65033;SDS011;51601;51.356;12.458;2023-12-20T14:20:33;5.35;;;1.80;;
65033;SDS011;51601;51.356;12.458;2023-12-20T14:24:51;4.40;;;1.77;;
65033;SDS011;51601;51.356;12.458;2023-12-20T14:29:09;5.13;;;1.65;;
65033;SDS011;51601;51.356;12.458;2023-12-20T14:33:29;5.55;;;1.60;;
65033;SDS011;51601;51.356;12.458;2023-12-20T14:37:48;4.38;;;1.02;;
65033;SDS011;51601;51.356;12.458;2023-12-20T14:42:06;3.57;;;1.20;;
65033;SDS011;51601;51.356;12.458;2023-12-20T14:46:28;3.17;;;1.30;;
65033;SDS011;51601;51.356;12.458;2023-12-20T14:50:50;3.63;;;1.20;;
65033;SDS011;51601;51.356;12.458;2023-12-20T14:55:10;7.00;;;1.63;;
65033;SDS011;51601;51.356;12.458;2023-12-20T14:59:28;3.20;;;1.48;;
65033;SDS011;51601;51.356;12.458;2023-12-20T15:03:46;4.38;;;1.55;;
65033;SDS011;51601;51.356;12.458;2023-12-20T15:08:08;3.83;;;1.53;;
65033;SDS011;51601;51.356;12.458;2023-12-20T15:12:28;4.43;;;1.23;;
65033;SDS011;51601;51.356;12.458;2023-12-20T15:16:46;3.80;;;1.45;;
65033;SDS011;51601;51.356;12.458;2023-12-20T15:21:04;3.92;;;1.33;;
65033;SDS011;51601;51.356;12.458;2023-12-20T15:25:24;3.03;;;1.10;;
65033;SDS011;51601;51.356;12.458;2023-12-20T15:29:43;4.00;;;1.70;;
65033;SDS011;51601;51.356;12.458;2023-12-20T15:34:01;6.95;;;1.42;;
65033;SDS011;51601;51.356;12.458;2023-12-20T15:38:19;4.13;;;1.27;;
65033;SDS011;51601;51.356;12.458;2023-12-20T15:42:39;3.47;;;1.30;;
65033;SDS011;51601;51.356;12.458;2023-12-20T15:46:59;3.92;;;1.48;;
65033;SDS011;51601;51.356;12.458;2023-12-20T15:51:19;4.87;;;1.47;;
65033;SDS011;51601;51.356;12.458;2023-12-20T15:55:38;4.35;;;1.40;;
65033;SDS011;51601;51.356;12.458;2023-12-20T15:59:58;3.42;;;1.40;;
65033;SDS011;51601;51.356;12.458;2023-12-20T16:04:17;5.82;;;1.30;;
65033;SDS011;51601;51.356;12.458;2023-12-20T16:08:39;5.33;;;1.30;;
65033;SDS011;51601;51.356;12.458;2023-12-20T16:12:59;2.92;;;1.30;;
65033;SDS011;51601;51.356;12.458;2023-12-20T16:17:27;3.85;;;1.27;;
65033;SDS011;51601;51.356;12.458;2023-12-20T16:22:00;5.70;;;1.30;;
65033;SDS011;51601;51.356;12.458;2023-12-20T16:26:21;5.47;;;1.33;;
65033;SDS011;51601;51.356;12.458;2023-12-20T16:30:39;6.60;;;1.73;;
65033;SDS011;51601;51.356;12.458;2023-12-20T16:35:02;5.77;;;1.63;;
65033;SDS011;51601;51.356;12.458;2023-12-20T16:39:27;5.03;;;1.30;;
65033;SDS011;51601;51.356;12.458;2023-12-20T16:43:46;6.13;;;2.17;;
65033;SDS011;51601;51.356;12.458;2023-12-20T16:48:16;6.18;;;2.17;;
65033;SDS011;51601;51.356;12.458;2023-12-20T16:52:38;5.70;;;1.90;;
65033;SDS011;51601;51.356;12.458;2023-12-20T16:57:06;6.05;;;2.08;;
65033;SDS011;51601;51.356;12.458;2023-12-20T17:01:29;6.35;;;2.10;;
65033;SDS011;51601;51.356;12.458;2023-12-20T17:05:53;7.67;;;2.40;;
65033;SDS011;51601;51.356;12.458;2023-12-20T17:10:15;6.38;;;1.95;;
65033;SDS011;51601;51.356;12.458;2023-12-20T17:14:35;6.43;;;2.33;;
65033;SDS011;51601;51.356;12.458;2023-12-20T17:18:59;6.93;;;2.40;;
65033;SDS011;51601;51.356;12.458;2023-12-20T17:23:23;5.65;;;2.03;;
65033;SDS011;51601;51.356;12.458;2023-12-20T17:27:43;6.10;;;2.15;;
65033;SDS011;51601;51.356;12.458;2023-12-20T17:32:06;6.57;;;2.30;;
65033;SDS011;51601;51.356;12.458;2023-12-20T17:36:24;4.63;;;1.60;;
65033;SDS011;51601;51.356;12.458;2023-12-20T17:40:43;5.65;;;1.65;;
65033;SDS011;51601;51.356;12.458;2023-12-20T17:45:05;5.07;;;1.73;;
65033;SDS011;51601;51.356;12.458;2023-12-20T17:49:24;5.33;;;1.60;;
65033;SDS011;51601;51.356;12.458;2023-12-20T17:53:45;4.55;;;1.40;;
65033;SDS011;51601;51.356;12.458;2023-12-20T17:58:06;4.97;;;1.63;;
65033;SDS011;51601;51.356;12.458;2023-12-20T18:08:03;4.03;;;1.30;;
65033;SDS011;51601;51.356;12.458;2023-12-20T18:12:23;4.40;;;1.50;;
65033;SDS011;51601;51.356;12.458;2023-12-20T18:16:42;4.85;;;1.52;;
65033;SDS011;51601;51.356;12.458;2023-12-20T18:21:10;6.27;;;1.90;;
65033;SDS011;51601;51.356;12.458;2023-12-20T18:25:34;5.95;;;1.95;;
65033;SDS011;51601;51.356;12.458;2023-12-20T18:30:00;6.05;;;2.10;;
65033;SDS011;51601;51.356;12.458;2023-12-20T18:34:31;6.07;;;2.60;;
65033;SDS011;51601;51.356;12.458;2023-12-20T18:38:49;7.22;;;2.58;;
65033;SDS011;51601;51.356;12.458;2023-12-20T18:43:11;8.10;;;2.83;;
65033;SDS011;51601;51.356;12.458;2023-12-20T18:47:31;7.67;;;3.30;;
65033;SDS011;51601;51.356;12.458;2023-12-20T18:51:50;8.00;;;2.80;;
65033;SDS011;51601;51.356;12.458;2023-12-20T18:56:07;7.72;;;3.30;;
65033;SDS011;51601;51.356;12.458;2023-12-20T19:00:30;9.65;;;3.08;;
65033;SDS011;51601;51.356;12.458;2023-12-20T19:04:49;9.83;;;2.43;;
65033;SDS011;51601;51.356;12.458;2023-12-20T19:09:10;8.35;;;2.83;;
65033;SDS011;51601;51.356;12.458;2023-12-20T19:13:31;6.57;;;2.13;;
65033;SDS011;51601;51.356;12.458;2023-12-20T19:18:00;8.17;;;2.50;;
65033;SDS011;51601;51.356;12.458;2023-12-20T19:22:23;9.00;;;3.17;;
65033;SDS011;51601;51.356;12.458;2023-12-20T19:26:47;9.25;;;3.67;;
65033;SDS011;51601;51.356;12.458;2023-12-20T19:31:06;6.63;;;2.70;;
65033;SDS011;51601;51.356;12.458;2023-12-20T19:35:28;8.48;;;3.05;;
65033;SDS011;51601;51.356;12.458;2023-12-20T19:39:47;6.93;;;2.30;;
65033;SDS011;51601;51.356;12.458;2023-12-20T19:44:08;7.22;;;2.38;;
65033;SDS011;51601;51.356;12.458;2023-12-20T19:48:30;4.53;;;1.60;;
65033;SDS011;51601;51.356;12.458;2023-12-20T19:52:50;4.75;;;1.80;;
65033;SDS011;51601;51.356;12.458;2023-12-20T19:57:12;6.22;;;1.88;;
65033;SDS011;51601;51.356;12.458;2023-12-20T20:01:36;3.97;;;1.63;;
65033;SDS011;51601;51.356;12.458;2023-12-20T20:05:57;4.53;;;1.70;;
65033;SDS011;51601;51.356;12.458;2023-12-20T20:10:17;4.57;;;1.38;;
65033;SDS011;51601;51.356;12.458;2023-12-20T20:14:36;4.80;;;1.60;;
65033;SDS011;51601;51.356;12.458;2023-12-20T20:18:55;7.40;;;1.90;;
65033;SDS011;51601;51.356;12.458;2023-12-20T20:23:13;8.05;;;1.90;;
65033;SDS011;51601;51.356;12.458;2023-12-20T20:27:32;4.35;;;1.40;;
65033;SDS011;51601;51.356;12.458;2023-12-20T20:31:52;5.17;;;1.60;;
65033;SDS011;51601;51.356;12.458;2023-12-20T20:36:13;2.58;;;1.10;;
65033;SDS011;51601;51.356;12.458;2023-12-20T20:40:31;4.35;;;1.50;;
65033;SDS011;51601;51.356;12.458;2023-12-20T20:44:51;6.20;;;2.07;;
65033;SDS011;51601;51.356;12.458;2023-12-20T20:49:11;6.65;;;1.52;;
65033;SDS011;51601;51.356;12.458;2023-12-20T20:53:31;4.50;;;1.70;;
65033;SDS011;51601;51.356;12.458;2023-12-20T20:57:55;4.43;;;1.53;;
65033;SDS011;51601;51.356;12.458;2023-12-20T21:02:21;4.78;;;1.40;;
65033;SDS011;51601;51.356;12.458;2023-12-20T21:06:41;5.82;;;2.13;;
65033;SDS011;51601;51.356;12.458;2023-12-20T21:11:05;3.78;;;1.42;;
65033;SDS011;51601;51.356;12.458;2023-12-20T21:15:27;5.50;;;1.30;;
65033;SDS011;51601;51.356;12.458;2023-12-20T21:19:52;3.30;;;1.35;;
65033;SDS011;51601;51.356;12.458;2023-12-20T21:24:08;3.85;;;1.35;;
65033;SDS011;51601;51.356;12.458;2023-12-20T21:28:29;6.03;;;2.20;;
65033;SDS011;51601;51.356;12.458;2023-12-20T21:32:47;4.40;;;1.70;;
65033;SDS011;51601;51.356;12.458;2023-12-20T21:37:10;4.68;;;1.88;;
65033;SDS011;51601;51.356;12.458;2023-12-20T21:41:30;5.90;;;1.90;;
65033;SDS011;51601;51.356;12.458;2023-12-20T21:45:48;6.20;;;1.52;;
65033;SDS011;51601;51.356;12.458;2023-12-20T21:50:06;4.45;;;1.50;;
65033;SDS011;51601;51.356;12.458;2023-12-20T21:54:29;4.20;;;1.40;;
65033;SDS011;51601;51.356;12.458;2023-12-20T21:58:54;3.87;;;1.40;;
65033;SDS011;51601;51.356;12.458;2023-12-20T22:03:15;4.07;;;1.00;;
65033;SDS011;51601;51.356;12.458;2023-12-20T22:07:33;2.35;;;1.00;;
65033;SDS011;51601;51.356;12.458;2023-12-20T22:11:55;4.37;;;1.57;;
65033;SDS011;51601;51.356;12.458;2023-12-20T22:16:13;4.53;;;1.33;;
65033;SDS011;51601;51.356;12.458;2023-12-20T22:20:34;4.60;;;1.00;;
65033;SDS011;51601;51.356;12.458;2023-12-20T22:24:55;4.40;;;1.23;;
65033;SDS011;51601;51.356;12.458;2023-12-20T22:29:14;2.15;;;0.93;;
65033;SDS011;51601;51.356;12.458;2023-12-20T22:33:34;2.85;;;1.08;;
65033;SDS011;51601;51.356;12.458;2023-12-20T22:37:52;3.15;;;1.38;;
65033;SDS011;51601;51.356;12.458;2023-12-20T22:42:10;4.60;;;1.20;;
65033;SDS011;51601;51.356;12.458;2023-12-20T22:46:30;3.08;;;1.23;;
65033;SDS011;51601;51.356;12.458;2023-12-20T22:50:49;3.75;;;1.33;;
65033;SDS011;51601;51.356;12.458;2023-12-20T22:55:14;3.87;;;1.40;;
65033;SDS011;51601;51.356;12.458;2023-12-20T22:59:32;2.70;;;1.00;;
65033;SDS011;51601;51.356;12.458;2023-12-20T23:03:51;3.53;;;1.27;;
65033;SDS011;51601;51.356;12.458;2023-12-20T23:13:21;1.50;;;0.82;;
65033;SDS011;51601;51.356;12.458;2023-12-20T23:17:42;2.63;;;1.20;;
65033;SDS011;51601;51.356;12.458;2023-12-20T23:22:02;2.90;;;1.05;;
65033;SDS011;51601;51.356;12.458;2023-12-20T23:26:21;2.53;;;1.07;;
65033;SDS011;51601;51.356;12.458;2023-12-20T23:30:39;1.73;;;0.80;;
65033;SDS011;51601;51.356;12.458;2023-12-20T23:34:57;2.53;;;0.90;;
65033;SDS011;51601;51.356;12.458;2023-12-20T23:39:32;1.97;;;0.97;;
65033;SDS011;51601;51.356;12.458;2023-12-20T23:43:52;2.33;;;0.82;;
65033;SDS011;51601;51.356;12.458;2023-12-20T23:48:10;3.25;;;1.08;;
65033;SDS011;51601;51.356;12.458;2023-12-20T23:52:28;3.20;;;1.10;;
65033;SDS011;51601;51.356;12.458;2023-12-20T23:56:48;1.45;;;0.80;;
